Saturday, October 25, 2014
16:04 UTC
  |  Log In   |  Register Free
Airport Search:

Chanute Martin Johnson Airport
(KCNU)

Chanute Martin Johnson Airport Diagram
No Airport Diagram Available

FAA data valid effective September 18, 2014 - November 13, 2014 (unless otherwise noted).

 
 
 
 
 
 
 
 
 
 
 
 
 
 

Current Aviation Weather for Chanute Martin Johnson Airport (KCNU)

The most recent METAR observation for KCNU was updated at: 1508
METAR Summary (Translated METAR)
KCNU
251452Z AUTO 19003KT 5SM BR CLR 17/17 A3009 RMK AO2 SLP184 T01720172 53014
KPPF
251452Z AUTO 19005KT 6SM BR CLR 19/17 A3011 RMK AO2 SLP188 T01890172 53010
(20.3 nm SW from KCNU)
KIDP
251455Z AUTO 20004KT 1 1/2SM BR VV007 18/16 A3009 RMK AO2
(33.7 nm SW from KCNU)
TAF Summary (Translated TAF)
KCNU
251508Z 2515/2612 01003KT 5SM BR SKC FM251600 05004KT P6SM SKC FM252000 09007KT P6SM SKC
  Airport Weather Conditions for KCNU

 Current Weather at CNU
63° F
Fog/Mist
South winds at 3.5 mph
CNU NOAA Radar

Pressure: 30.09 in
Humidity: 100%
Wind: South at 3.5 MPH (3 KT)
Dew Point: 63.0°F
Visibility: 5.00 mi


Airport Weather Forecast for KCNU

Translated METAR and TAF for KCNU
Translated METAR for KCNU (1559 UTC 25 October 2014)
found at http://aviationweather.gov/adds/metars/
 
METAR text: KCNU 251552Z AUTO 20005KT 10SM CLR 21/18 A3009 RMK AO2 SLP181 T02110178
Conditions at: KCNU (CHANUTE , KS, US) observed 1552 UTC 25 October 2014
Temperature: 21.1°C (70°F)
Dewpoint: 17.8°C (64°F) [RH = 81%]
Pressure (altimeter): 30.09 inches Hg (1019.0 mb)
[Sea-level pressure: 1018.1 mb]
Winds: from the SSW (200 degrees) at 6 MPH (5 knots; 2.6 m/s)
Visibility: 10 or more miles (16+ km)
Ceiling: at least 12,000 feet AGL
Clouds: sky clear below 12,000 feet AGL
Weather: automated observation with no human augmentation;
there may or may not be significant weather present at this time
Translated TAF for KCNU
Forecast for: KCNU (CHANUTE , KS, US)
TAF Text: KCNU 251508Z 2515/2612 01003KT 5SM BR SKC
Forecast period: 1500 to 1600 UTC 25 October 2014
Forecast type: FROM: standard forecast or significant change
Winds: from the N (10 degrees) at 3 MPH (3 knots; 1.6 m/s)
Visibility: 5 miles (8 km)
Clouds: clear skies
Weather: BR  (mist)
TAF Text: FM251600 05004KT P6SM SKC
Forecast period: 1600 to 2000 UTC 25 October 2014
Forecast type: FROM: standard forecast or significant change
Winds: from the NE (50 degrees) at 5 MPH (4 knots; 2.1 m/s)
Visibility: 6 or more miles (10+ km)
Clouds: clear skies
Weather: no significant weather forecast for this period
TAF Text: FM252000 09007KT P6SM SKC
Forecast period: 2000 UTC 25 October 2014 to 1200 UTC 26 October 2014
Forecast type: FROM: standard forecast or significant change
Winds: from the E (90 degrees) at 8 MPH (7 knots; 3.6 m/s)
Visibility: 6 or more miles (10+ km)
Clouds: clear skies
Weather: no significant weather forecast for this period

Find All Airport Services Find A Hotel Find A Rental Car Find A Golf Course Find A Restaurant $100 Hamburger



FBO's on the Field
FBO Company Facility Photos Services Transportation Aviation Fuel Prices: Prices include tax
Catering Weather Repair Courtesy Rental Type 100LL JetA JetA+ MOGAS 8087
 
City of Chanute

This FBO has not yet been rated
FS: Phillips 66
Last Updated: Oct-03
Login to update fuel prices
SS:
Contact City of ChanuteMore FBO Information
 
Add another FBO Facility Photos Catering Weather Repair Courtesy Rental Type 100LL JetA JetA+ MOGAS 8087
Services Transportation Aviation Fuel Prices: Prices include tax


model-print
model-print
model-print
model-print